sensor_id;sensor_type;location;lat;lon;timestamp;temperature;humidity
12843;DHT22;35724;49.324;-123.118;2024-02-16T00:00:26;8.10;55.50
12843;DHT22;35724;49.324;-123.118;2024-02-16T00:10:35;8.00;52.50
12843;DHT22;35724;49.324;-123.118;2024-02-16T00:20:42;7.80;52.70
12843;DHT22;35724;49.324;-123.118;2024-02-16T00:30:51;7.50;50.00
12843;DHT22;35724;49.324;-123.118;2024-02-16T00:41:06;7.50;43.70
12843;DHT22;35724;49.324;-123.118;2024-02-16T00:51:18;7.40;50.90
12843;DHT22;35724;49.324;-123.118;2024-02-16T01:01:25;7.10;59.70
12843;DHT22;35724;49.324;-123.118;2024-02-16T01:11:34;6.60;65.70
12843;DHT22;35724;49.324;-123.118;2024-02-16T01:21:41;6.10;66.30
12843;DHT22;35724;49.324;-123.118;2024-02-16T01:31:53;5.60;71.10
12843;DHT22;35724;49.324;-123.118;2024-02-16T01:42:02;5.20;73.60
12843;DHT22;35724;49.324;-123.118;2024-02-16T01:52:11;4.90;74.30
12843;DHT22;35724;49.324;-123.118;2024-02-16T02:02:18;4.50;75.10
12843;DHT22;35724;49.324;-123.118;2024-02-16T02:12:27;4.10;78.90
12843;DHT22;35724;49.324;-123.118;2024-02-16T02:22:36;3.90;81.50
12843;DHT22;35724;49.324;-123.118;2024-02-16T02:32:43;3.70;83.80
12843;DHT22;35724;49.324;-123.118;2024-02-16T02:42:53;3.40;86.50
12843;DHT22;35724;49.324;-123.118;2024-02-16T02:53:00;3.30;83.80
12843;DHT22;35724;49.324;-123.118;2024-02-16T03:03:08;3.20;84.80
12843;DHT22;35724;49.324;-123.118;2024-02-16T03:13:16;3.10;83.60
12843;DHT22;35724;49.324;-123.118;2024-02-16T03:23:25;3.00;81.60
12843;DHT22;35724;49.324;-123.118;2024-02-16T03:33:32;2.90;77.50
12843;DHT22;35724;49.324;-123.118;2024-02-16T03:43:42;2.90;78.20
12843;DHT22;35724;49.324;-123.118;2024-02-16T03:53:49;2.70;77.60
12843;DHT22;35724;49.324;-123.118;2024-02-16T04:03:58;2.60;77.10
12843;DHT22;35724;49.324;-123.118;2024-02-16T04:14:05;2.50;77.50
12843;DHT22;35724;49.324;-123.118;2024-02-16T04:24:14;2.30;81.80
12843;DHT22;35724;49.324;-123.118;2024-02-16T04:34:22;2.20;81.50
12843;DHT22;35724;49.324;-123.118;2024-02-16T04:44:31;2.10;80.30
12843;DHT22;35724;49.324;-123.118;2024-02-16T04:54:38;1.90;86.10
12843;DHT22;35724;49.324;-123.118;2024-02-16T05:04:48;1.70;86.50
12843;DHT22;35724;49.324;-123.118;2024-02-16T05:14:55;1.60;87.10
12843;DHT22;35724;49.324;-123.118;2024-02-16T05:25:04;1.40;90.20
12843;DHT22;35724;49.324;-123.118;2024-02-16T05:35:11;1.40;87.90
12843;DHT22;35724;49.324;-123.118;2024-02-16T05:45:22;1.40;85.10
12843;DHT22;35724;49.324;-123.118;2024-02-16T05:55:30;1.40;82.00
12843;DHT22;35724;49.324;-123.118;2024-02-16T06:05:39;1.40;84.10
12843;DHT22;35724;49.324;-123.118;2024-02-16T06:15:49;1.20;90.00
12843;DHT22;35724;49.324;-123.118;2024-02-16T06:25:57;1.00;89.60
12843;DHT22;35724;49.324;-123.118;2024-02-16T06:36:05;0.80;92.30
12843;DHT22;35724;49.324;-123.118;2024-02-16T06:46:16;0.60;90.70
12843;DHT22;35724;49.324;-123.118;2024-02-16T06:56:24;0.40;94.00
12843;DHT22;35724;49.324;-123.118;2024-02-16T07:06:32;0.40;94.80
12843;DHT22;35724;49.324;-123.118;2024-02-16T07:16:40;0.30;93.10
12843;DHT22;35724;49.324;-123.118;2024-02-16T07:26:49;0.10;94.00
12843;DHT22;35724;49.324;-123.118;2024-02-16T07:36:58;0.10;94.00
12843;DHT22;35724;49.324;-123.118;2024-02-16T07:47:08;0.00;96.90
12843;DHT22;35724;49.324;-123.118;2024-02-16T07:57:17;0.00;97.20
12843;DHT22;35724;49.324;-123.118;2024-02-16T08:07:26;0.00;95.20
12843;DHT22;35724;49.324;-123.118;2024-02-16T08:17:33;0.00;94.40
12843;DHT22;35724;49.324;-123.118;2024-02-16T08:27:42;-0.10;94.80
12843;DHT22;35724;49.324;-123.118;2024-02-16T08:37:50;-0.20;95.50
12843;DHT22;35724;49.324;-123.118;2024-02-16T08:48:03;-0.30;95.70
12843;DHT22;35724;49.324;-123.118;2024-02-16T08:58:11;-0.40;97.60
12843;DHT22;35724;49.324;-123.118;2024-02-16T09:08:20;-0.40;95.20
12843;DHT22;35724;49.324;-123.118;2024-02-16T09:18:27;-0.50;95.70
12843;DHT22;35724;49.324;-123.118;2024-02-16T09:28:39;-0.50;95.80
12843;DHT22;35724;49.324;-123.118;2024-02-16T09:38:47;-0.70;95.10
12843;DHT22;35724;49.324;-123.118;2024-02-16T09:49:01;-0.60;95.10
12843;DHT22;35724;49.324;-123.118;2024-02-16T09:59:09;-0.60;93.20
12843;DHT22;35724;49.324;-123.118;2024-02-16T10:09:25;-0.60;94.30
12843;DHT22;35724;49.324;-123.118;2024-02-16T10:19:34;-0.60;96.70
12843;DHT22;35724;49.324;-123.118;2024-02-16T10:29:48;-0.70;98.30
12843;DHT22;35724;49.324;-123.118;2024-02-16T10:39:59;-0.80;96.70
12843;DHT22;35724;49.324;-123.118;2024-02-16T10:50:09;-0.80;96.70
12843;DHT22;35724;49.324;-123.118;2024-02-16T11:00:17;-0.90;95.40
12843;DHT22;35724;49.324;-123.118;2024-02-16T11:10:29;-0.80;96.00
12843;DHT22;35724;49.324;-123.118;2024-02-16T11:20:39;-0.90;98.10
12843;DHT22;35724;49.324;-123.118;2024-02-16T11:30:49;-1.00;95.70
12843;DHT22;35724;49.324;-123.118;2024-02-16T11:41:03;-1.00;95.70
12843;DHT22;35724;49.324;-123.118;2024-02-16T11:51:15;-1.10;97.80
12843;DHT22;35724;49.324;-123.118;2024-02-16T12:01:23;-1.10;96.80
12843;DHT22;35724;49.324;-123.118;2024-02-16T12:11:32;-1.10;99.90
12843;DHT22;35724;49.324;-123.118;2024-02-16T12:21:39;-1.10;97.10
12843;DHT22;35724;49.324;-123.118;2024-02-16T12:31:48;-1.20;97.30
12843;DHT22;35724;49.324;-123.118;2024-02-16T12:41:55;-1.10;97.50
12843;DHT22;35724;49.324;-123.118;2024-02-16T12:52:05;-1.20;99.90
12843;DHT22;35724;49.324;-123.118;2024-02-16T13:02:16;-1.30;99.90
12843;DHT22;35724;49.324;-123.118;2024-02-16T13:12:25;-1.40;99.90
12843;DHT22;35724;49.324;-123.118;2024-02-16T13:22:33;-1.40;99.90
12843;DHT22;35724;49.324;-123.118;2024-02-16T13:32:42;-1.40;98.30
12843;DHT22;35724;49.324;-123.118;2024-02-16T13:42:49;-1.40;97.20
12843;DHT22;35724;49.324;-123.118;2024-02-16T13:52:59;-1.40;96.70
12843;DHT22;35724;49.324;-123.118;2024-02-16T14:03:06;-1.50;99.20
12843;DHT22;35724;49.324;-123.118;2024-02-16T14:13:17;-1.50;99.90
12843;DHT22;35724;49.324;-123.118;2024-02-16T14:23:24;-1.70;99.90
12843;DHT22;35724;49.324;-123.118;2024-02-16T14:33:36;-1.70;99.90
12843;DHT22;35724;49.324;-123.118;2024-02-16T14:43:44;-1.80;99.90
12843;DHT22;35724;49.324;-123.118;2024-02-16T14:53:53;-1.70;99.90
12843;DHT22;35724;49.324;-123.118;2024-02-16T15:04:01;-1.70;99.90
12843;DHT22;35724;49.324;-123.118;2024-02-16T15:14:10;-1.70;99.90
12843;DHT22;35724;49.324;-123.118;2024-02-16T15:24:23;-1.80;99.90
12843;DHT22;35724;49.324;-123.118;2024-02-16T15:34:31;-1.80;99.90
12843;DHT22;35724;49.324;-123.118;2024-02-16T15:44:38;-1.80;99.90
12843;DHT22;35724;49.324;-123.118;2024-02-16T15:54:48;-1.70;99.90
12843;DHT22;35724;49.324;-123.118;2024-02-16T16:04:55;-1.50;99.90
12843;DHT22;35724;49.324;-123.118;2024-02-16T16:15:04;-1.30;99.90
12843;DHT22;35724;49.324;-123.118;2024-02-16T16:25:12;-1.10;99.90
12843;DHT22;35724;49.324;-123.118;2024-02-16T16:35:21;-0.80;99.90
12843;DHT22;35724;49.324;-123.118;2024-02-16T16:45:28;-0.50;99.90
12843;DHT22;35724;49.324;-123.118;2024-02-16T16:55:39;-0.10;99.50
12843;DHT22;35724;49.324;-123.118;2024-02-16T17:05:46;0.40;97.00
12843;DHT22;35724;49.324;-123.118;2024-02-16T17:15:55;0.70;99.90
12843;DHT22;35724;49.324;-123.118;2024-02-16T17:26:04;1.10;99.80
12843;DHT22;35724;49.324;-123.118;2024-02-16T17:36:12;1.60;94.90
12843;DHT22;35724;49.324;-123.118;2024-02-16T17:46:20;2.40;94.90
12843;DHT22;35724;49.324;-123.118;2024-02-16T17:56:30;2.80;90.60
12843;DHT22;35724;49.324;-123.118;2024-02-16T18:06:37;3.80;81.40
12843;DHT22;35724;49.324;-123.118;2024-02-16T18:16:48;4.80;74.50
12843;DHT22;35724;49.324;-123.118;2024-02-16T18:26:56;5.70;59.30
12843;DHT22;35724;49.324;-123.118;2024-02-16T18:37:05;8.30;52.10
12843;DHT22;35724;49.324;-123.118;2024-02-16T18:47:12;12.90;43.40
12843;DHT22;35724;49.324;-123.118;2024-02-16T18:57:23;13.70;41.80
12843;DHT22;35724;49.324;-123.118;2024-02-16T19:07:31;13.00;35.50
12843;DHT22;35724;49.324;-123.118;2024-02-16T19:17:40;14.70;34.00
12843;DHT22;35724;49.324;-123.118;2024-02-16T19:27:47;13.10;36.60
12843;DHT22;35724;49.324;-123.118;2024-02-16T19:37:57;12.00;37.60
12843;DHT22;35724;49.324;-123.118;2024-02-16T19:48:05;10.70;36.00
12843;DHT22;35724;49.324;-123.118;2024-02-16T19:58:15;10.50;40.20
12843;DHT22;35724;49.324;-123.118;2024-02-16T20:08:22;9.70;40.50
12843;DHT22;35724;49.324;-123.118;2024-02-16T20:18:31;9.20;38.30
12843;DHT22;35724;49.324;-123.118;2024-02-16T20:28:38;8.90;39.70
12843;DHT22;35724;49.324;-123.118;2024-02-16T20:38:47;8.50;42.10
12843;DHT22;35724;49.324;-123.118;2024-02-16T20:48:54;8.70;40.90
12843;DHT22;35724;49.324;-123.118;2024-02-16T20:59:04;8.70;40.90
12843;DHT22;35724;49.324;-123.118;2024-02-16T21:09:11;9.10;39.30
12843;DHT22;35724;49.324;-123.118;2024-02-16T21:19:20;9.30;38.80
12843;DHT22;35724;49.324;-123.118;2024-02-16T21:29:28;9.50;40.20
12843;DHT22;35724;49.324;-123.118;2024-02-16T21:39:36;9.80;38.50
12843;DHT22;35724;49.324;-123.118;2024-02-16T21:49:44;10.00;37.70
12843;DHT22;35724;49.324;-123.118;2024-02-16T21:59:54;10.40;36.80
12843;DHT22;35724;49.324;-123.118;2024-02-16T22:10:01;10.40;37.60
12843;DHT22;35724;49.324;-123.118;2024-02-16T22:20:15;10.20;37.40
12843;DHT22;35724;49.324;-123.118;2024-02-16T22:30:22;10.10;48.90
12843;DHT22;35724;49.324;-123.118;2024-02-16T22:40:32;9.60;47.80
12843;DHT22;35724;49.324;-123.118;2024-02-16T22:50:41;9.60;44.00
12843;DHT22;35724;49.324;-123.118;2024-02-16T23:00:53;9.80;46.90
12843;DHT22;35724;49.324;-123.118;2024-02-16T23:11:01;9.20;55.10
12843;DHT22;35724;49.324;-123.118;2024-02-16T23:21:10;9.00;55.00
12843;DHT22;35724;49.324;-123.118;2024-02-16T23:31:18;8.80;52.30
12843;DHT22;35724;49.324;-123.118;2024-02-16T23:41:29;8.70;49.40
12843;DHT22;35724;49.324;-123.118;2024-02-16T23:51:36;8.40;51.50
